Accueil
METAR-TAF:

METAR-TAF

Aéroports :

Chignik, Alaska, États-Unis

latitude: 56-18-41N, longitude: 158-22-24W, altitude: 6 m

Observation

Le bulletin a été fait il y a 47 minutes, à 17:57 UTC
Vent calme
Température 9°C
Humidité 93%
Pression 1001 hPa
Visibilité: 14.5 km
Quelques nuages à une hauteur de 3900 ft
pluie faible

METAR: PAJC 131757Z AUTO 00000KT 9SM -RA FEW039 09/08 A2957 RMK AO2 SLP013 P0003 60011 T00940078 10094 20089 55007 $

Heure: 10:44 (18:44 UTC)


TAF: absent

Observations et prévisions météorologiques de plus de 4000 aéroports (messages METAR et TAF).

Les stations disponibles sont représentées par des disques jaunes et rouges sur la carte.

Passer la souris dessus pour voir le nom de la station.

Cliquer dessus pour voir les observations et prévisions météorologiques.

Pour changer de carte: cliquez sur les boutons verts avec une croix noire pour zoomer, sur le bouton vert avec un tiret pour effectuer un zoom arrière, ou sur les flèches vertes pour les cartes adjacentes.


METAR-TAF: